TimeEST,TemperatureF,Dew PointF,Humidity,Sea Level PressureIn,VisibilityMPH,Wind Direction,Wind SpeedMPH,Gust SpeedMPH,PrecipitationIn,Events,Conditions,WindDirDegrees,DateUTC
12:17 AM,3.7,-0.8,82,30.27,10.0,WNW,3.5,-,N/A,,Scattered Clouds,290,2014-02-06 05:17:00
12:38 AM,3.6,-0.9,82,30.27,10.0,WSW,3.5,-,N/A,,Scattered Clouds,250,2014-02-06 05:38:00
12:57 AM,2.8,-1.3,83,30.27,10.0,Calm,Calm,-,N/A,,Mostly Cloudy,0,2014-02-06 05:57:00
1:17 AM,4.1,-0.6,81,30.27,10.0,Calm,Calm,-,N/A,,Mostly Cloudy,0,2014-02-06 06:17:00
1:38 AM,3.7,-0.6,82,30.26,10.0,Calm,Calm,-,N/A,,Overcast,0,2014-02-06 06:38:00
1:57 AM,4.8,-0.0,80,30.26,10.0,West,3.5,-,N/A,,Overcast,270,2014-02-06 06:57:00
2:17 AM,4.6,-0.4,80,30.26,10.0,Calm,Calm,-,N/A,,Overcast,0,2014-02-06 07:17:00
2:38 AM,4.5,-0.4,80,30.25,10.0,West,3.5,-,N/A,,Overcast,260,2014-02-06 07:38:00
2:57 AM,3.9,-0.9,80,30.25,10.0,WSW,3.5,-,N/A,,Overcast,250,2014-02-06 07:57:00
3:17 AM,3.2,-1.3,82,30.24,10.0,West,3.5,-,N/A,,Overcast,260,2014-02-06 08:17:00
3:38 AM,2.8,-1.3,83,30.24,10.0,WSW,3.5,-,N/A,,Overcast,250,2014-02-06 08:38:00
3:57 AM,2.8,-1.3,83,30.23,10.0,WSW,3.5,-,N/A,,Overcast,250,2014-02-06 08:57:00
4:17 AM,3.2,-1.3,82,30.23,10.0,WSW,3.5,-,N/A,,Overcast,250,2014-02-06 09:17:00
4:37 AM,4.5,-0.2,81,30.23,10.0,West,3.5,-,N/A,,Overcast,260,2014-02-06 09:37:00
4:57 AM,5.2,0.5,81,30.23,10.0,West,3.5,-,N/A,,Overcast,260,2014-02-06 09:57:00
5:17 AM,5.7,0.5,79,30.22,10.0,West,4.6,-,N/A,,Overcast,270,2014-02-06 10:17:00
5:37 AM,5.9,1.2,81,30.22,10.0,West,3.5,-,N/A,,Overcast,260,2014-02-06 10:37:00
5:57 AM,5.9,1.4,82,30.21,10.0,WSW,3.5,-,N/A,,Overcast,250,2014-02-06 10:57:00
6:17 AM,6.4,2.1,82,30.21,10.0,Calm,Calm,-,N/A,,Overcast,0,2014-02-06 11:17:00
6:38 AM,6.6,1.9,81,30.21,10.0,WSW,4.6,-,N/A,,Overcast,250,2014-02-06 11:38:00
6:57 AM,6.6,1.9,81,30.21,10.0,WSW,3.5,-,N/A,,Overcast,240,2014-02-06 11:57:00
7:17 AM,6.4,1.8,81,30.22,10.0,WSW,5.8,-,N/A,,Overcast,240,2014-02-06 12:17:00
7:37 AM,6.6,1.8,80,30.21,10.0,West,5.8,-,N/A,,Overcast,260,2014-02-06 12:37:00
7:57 AM,6.6,1.6,80,30.21,10.0,Calm,Calm,-,N/A,,Overcast,0,2014-02-06 12:57:00
8:18 AM,6.8,1.2,78,30.21,10.0,Calm,Calm,-,N/A,,Overcast,0,2014-02-06 13:18:00
8:37 AM,7.3,1.4,77,30.20,10.0,Calm,Calm,-,N/A,,Overcast,0,2014-02-06 13:37:00
8:57 AM,7.3,1.4,77,30.20,10.0,Calm,Calm,-,N/A,,Overcast,0,2014-02-06 13:57:00
9:18 AM,8.2,1.6,74,30.20,10.0,West,3.5,-,N/A,Snow,Light Snow,270,2014-02-06 14:18:00
9:37 AM,8.6,2.1,75,30.19,5.0,West,3.5,-,N/A,Snow,Light Snow,280,2014-02-06 14:37:00
9:57 AM,8.6,3.0,78,30.18,1.5,Calm,Calm,-,N/A,Snow,Light Snow,0,2014-02-06 14:57:00
10:17 AM,8.6,3.0,78,30.18,5.0,Calm,Calm,-,N/A,Snow,Light Snow,0,2014-02-06 15:17:00
10:37 AM,10.8,4.5,76,30.17,10.0,WSW,8.1,-,N/A,Snow,Light Snow,240,2014-02-06 15:37:00
10:58 AM,12.9,5.0,71,30.17,4.0,WSW,9.2,-,N/A,Snow,Light Snow,240,2014-02-06 15:58:00
11:17 AM,12.2,5.0,73,30.16,10.0,SW,8.1,-,N/A,Snow,Light Snow,220,2014-02-06 16:17:00
11:37 AM,12.7,5.2,72,30.16,7.0,WSW,6.9,-,N/A,Snow,Light Snow,250,2014-02-06 16:37:00
11:58 AM,13.6,5.5,70,30.15,5.0,WSW,5.8,-,N/A,Snow,Light Snow,240,2014-02-06 16:58:00
12:17 PM,14.9,5.2,65,30.14,7.0,West,8.1,-,N/A,Snow,Light Snow,280,2014-02-06 17:17:00
12:38 PM,13.1,5.0,70,30.13,10.0,WSW,10.4,16.1,N/A,Snow,Light Snow,240,2014-02-06 17:38:00
12:57 PM,12.9,4.5,69,30.12,7.0,WSW,13.8,19.6,N/A,,Overcast,250,2014-02-06 17:57:00
1:17 PM,12.9,5.0,71,30.11,10.0,West,9.2,-,N/A,,Overcast,260,2014-02-06 18:17:00
1:38 PM,13.1,5.4,71,30.10,7.0,WSW,11.5,-,N/A,,Overcast,250,2014-02-06 18:38:00
1:57 PM,12.7,4.8,71,30.10,10.0,West,8.1,17.3,N/A,,Overcast,260,2014-02-06 18:57:00
2:17 PM,13.1,5.7,72,30.09,10.0,West,8.1,-,N/A,Snow,Light Snow,260,2014-02-06 19:17:00
2:38 PM,13.1,5.9,73,30.08,4.0,WSW,5.8,-,N/A,Snow,Light Snow,250,2014-02-06 19:38:00
2:57 PM,13.1,6.1,74,30.08,3.0,WSW,9.2,-,N/A,Snow,Light Snow,250,2014-02-06 19:57:00
3:17 PM,13.3,5.7,72,30.08,5.0,West,5.8,17.3,N/A,Snow,Light Snow,270,2014-02-06 20:17:00
3:38 PM,13.3,5.0,70,30.08,10.0,West,12.7,20.7,N/A,,Overcast,260,2014-02-06 20:38:00
3:57 PM,13.1,5.7,72,30.08,5.0,WSW,5.8,-,N/A,Snow,Light Snow,250,2014-02-06 20:57:00
4:17 PM,12.9,5.9,74,30.07,4.0,West,8.1,-,N/A,Snow,Light Snow,260,2014-02-06 21:17:00
4:37 PM,12.9,7.3,78,30.07,1.5,WSW,4.6,-,N/A,Snow,Light Snow,250,2014-02-06 21:37:00
4:57 PM,13.1,7.5,78,30.06,2.5,WSW,4.6,-,N/A,Snow,Light Snow,250,2014-02-06 21:57:00
5:18 PM,12.6,7.2,79,30.06,3.0,West,5.8,-,N/A,Snow,Light Snow,260,2014-02-06 22:18:00
5:37 PM,12.2,5.9,76,30.06,7.0,WSW,6.9,-,N/A,Snow,Light Snow,250,2014-02-06 22:37:00
5:57 PM,12.4,4.8,72,30.06,10.0,WSW,9.2,16.1,N/A,,Overcast,250,2014-02-06 22:57:00
6:18 PM,12.6,5.0,72,30.06,10.0,WSW,10.4,16.1,N/A,,Overcast,240,2014-02-06 23:18:00
6:37 PM,12.4,5.2,73,30.05,10.0,WSW,10.4,16.1,N/A,,Overcast,250,2014-02-06 23:37:00
6:57 PM,12.2,5.2,73,30.05,7.0,WSW,10.4,16.1,N/A,,Overcast,240,2014-02-06 23:57:00
7:18 PM,12.6,5.0,72,30.05,10.0,WSW,10.4,16.1,N/A,,Overcast,250,2014-02-07 00:18:00
7:37 PM,12.6,5.2,72,30.05,10.0,WSW,10.4,16.1,N/A,,Overcast,250,2014-02-07 00:37:00
7:57 PM,12.4,5.5,74,30.05,10.0,WSW,9.2,17.3,N/A,,Overcast,240,2014-02-07 00:57:00
8:18 PM,12.2,5.7,75,30.04,10.0,WSW,8.1,-,N/A,,Overcast,240,2014-02-07 01:18:00
8:37 PM,12.4,5.9,75,30.04,7.0,WSW,10.4,18.4,N/A,Snow,Light Snow,250,2014-02-07 01:37:00
8:58 PM,12.2,5.9,76,30.05,7.0,WSW,10.4,-,N/A,Snow,Light Snow,250,2014-02-07 01:58:00
9:17 PM,12.6,5.9,75,30.04,10.0,WSW,8.1,-,N/A,Snow,Light Snow,240,2014-02-07 02:17:00
9:37 PM,11.7,6.8,81,30.04,2.0,West,6.9,-,N/A,Snow,Light Snow,260,2014-02-07 02:37:00
9:57 PM,11.3,7.5,85,30.04,1.0,West,4.6,-,N/A,Snow,Snow,260,2014-02-07 02:57:00
10:17 PM,11.3,7.3,84,30.04,1.0,West,5.8,-,N/A,Snow,Light Snow,260,2014-02-07 03:17:00
10:38 PM,11.5,7.3,83,30.04,1.5,WSW,4.6,-,N/A,Snow,Light Snow,250,2014-02-07 03:38:00
10:57 PM,11.8,6.1,78,30.03,5.0,West,6.9,-,N/A,Snow,Light Snow,260,2014-02-07 03:57:00
11:17 PM,12.2,4.1,70,30.03,10.0,West,6.9,-,N/A,,Overcast,260,2014-02-07 04:17:00
11:38 PM,12.2,3.7,69,30.02,10.0,West,4.6,-,N/A,,Overcast,260,2014-02-07 04:38:00
11:57 PM,12.2,3.4,68,30.03,10.0,West,5.8,-,N/A,,Overcast,260,2014-02-07 04:57:00